Terminal Aerodrome Forecast
Issued by NWS

Home | Current Version | Previous Version | Text Only | Print | Product List | Glossary Off
Versions: 1 2 3 4 5 6 7 8 9 10 11 12 13

000
FTUS45 KGGW 041720
TAFGDV
TAF
KGDV 041720Z 0418/0518 19007KT P6SM BKN110
     FM050000 20008KT P6SM OVC040
     FM050300 21007KT P6SM VCSH OVC035
     FM050600 23008KT 3SM -SN OVC015
     FM050900 29013KT 5SM -SN BKN020
     FM051500 29016G24KT P6SM BKN015=

USA.gov is the U.S. government's official web portal to all federal, state and local government web resources and services.